sensor_id;sensor_type;location;lat;lon;timestamp;P1;durP1;ratioP1;P2;durP2;ratioP2
74459;SDS011;62902;48.854;9.292;2023-02-15T00:01:55;975.90;;;668.75;;
74459;SDS011;62902;48.854;9.292;2023-02-15T00:04:22;975.60;;;673.25;;
74459;SDS011;62902;48.854;9.292;2023-02-15T00:06:49;976.60;;;673.70;;
74459;SDS011;62902;48.854;9.292;2023-02-15T00:09:16;978.55;;;679.45;;
74459;SDS011;62902;48.854;9.292;2023-02-15T00:11:45;967.45;;;669.50;;
74459;SDS011;62902;48.854;9.292;2023-02-15T00:14:19;970.30;;;673.60;;
74459;SDS011;62902;48.854;9.292;2023-02-15T00:16:47;970.30;;;674.20;;
74459;SDS011;62902;48.854;9.292;2023-02-15T00:19:15;972.50;;;668.17;;
74459;SDS011;62902;48.854;9.292;2023-02-15T00:21:43;970.20;;;668.45;;
74459;SDS011;62902;48.854;9.292;2023-02-15T00:24:10;967.72;;;663.97;;
74459;SDS011;62902;48.854;9.292;2023-02-15T00:26:39;973.20;;;668.30;;
74459;SDS011;62902;48.854;9.292;2023-02-15T00:29:06;975.63;;;680.43;;
74459;SDS011;62902;48.854;9.292;2023-02-15T00:31:33;971.25;;;676.25;;
74459;SDS011;62902;48.854;9.292;2023-02-15T00:34:02;968.10;;;672.20;;
74459;SDS011;62902;48.854;9.292;2023-02-15T00:36:29;965.60;;;672.50;;
74459;SDS011;62902;48.854;9.292;2023-02-15T00:41:22;968.78;;;669.03;;
74459;SDS011;62902;48.854;9.292;2023-02-15T00:43:49;970.37;;;669.80;;
74459;SDS011;62902;48.854;9.292;2023-02-15T00:46:15;960.40;;;657.95;;
74459;SDS011;62902;48.854;9.292;2023-02-15T00:48:42;970.08;;;669.13;;
74459;SDS011;62902;48.854;9.292;2023-02-15T00:51:09;980.03;;;678.10;;
74459;SDS011;62902;48.854;9.292;2023-02-15T00:53:35;965.72;;;667.33;;
74459;SDS011;62902;48.854;9.292;2023-02-15T00:56:02;968.50;;;673.60;;
74459;SDS011;62902;48.854;9.292;2023-02-15T00:58:29;968.72;;;673.50;;
74459;SDS011;62902;48.854;9.292;2023-02-15T01:01:01;968.80;;;667.63;;
74459;SDS011;62902;48.854;9.292;2023-02-15T01:03:30;968.20;;;667.13;;
74459;SDS011;62902;48.854;9.292;2023-02-15T01:05:56;962.60;;;662.13;;
74459;SDS011;62902;48.854;9.292;2023-02-15T01:08:24;968.35;;;667.00;;
74459;SDS011;62902;48.854;9.292;2023-02-15T01:10:51;965.53;;;665.60;;
74459;SDS011;62902;48.854;9.292;2023-02-15T01:13:18;962.77;;;664.70;;
74459;SDS011;62902;48.854;9.292;2023-02-15T01:15:45;962.97;;;665.45;;
74459;SDS011;62902;48.854;9.292;2023-02-15T01:18:11;959.85;;;665.97;;
74459;SDS011;62902;48.854;9.292;2023-02-15T01:20:40;958.55;;;667.70;;
74459;SDS011;62902;48.854;9.292;2023-02-15T01:23:09;954.50;;;664.30;;
74459;SDS011;62902;48.854;9.292;2023-02-15T01:25:45;954.80;;;665.55;;
74459;SDS011;62902;48.854;9.292;2023-02-15T01:28:11;956.55;;;670.25;;
74459;SDS011;62902;48.854;9.292;2023-02-15T01:30:38;955.70;;;664.10;;
74459;SDS011;62902;48.854;9.292;2023-02-15T01:33:05;959.80;;;673.35;;
74459;SDS011;62902;48.854;9.292;2023-02-15T01:35:31;955.45;;;670.20;;
74459;SDS011;62902;48.854;9.292;2023-02-15T01:37:58;950.20;;;666.15;;
74459;SDS011;62902;48.854;9.292;2023-02-15T01:40:25;949.05;;;666.50;;
74459;SDS011;62902;48.854;9.292;2023-02-15T01:42:52;951.60;;;665.05;;
74459;SDS011;62902;48.854;9.292;2023-02-15T01:45:21;950.45;;;664.00;;
74459;SDS011;62902;48.854;9.292;2023-02-15T01:50:54;952.20;;;668.55;;
74459;SDS011;62902;48.854;9.292;2023-02-15T01:53:27;953.80;;;667.60;;
74459;SDS011;62902;48.854;9.292;2023-02-15T01:56:01;957.70;;;668.80;;
74459;SDS011;62902;48.854;9.292;2023-02-15T01:58:31;950.90;;;664.60;;
74459;SDS011;62902;48.854;9.292;2023-02-15T02:00:58;949.30;;;662.00;;
74459;SDS011;62902;48.854;9.292;2023-02-15T02:03:33;948.53;;;662.78;;
74459;SDS011;62902;48.854;9.292;2023-02-15T02:06:05;952.97;;;667.30;;
74459;SDS011;62902;48.854;9.292;2023-02-15T02:08:31;951.17;;;663.50;;
74459;SDS011;62902;48.854;9.292;2023-02-15T02:10:58;950.60;;;665.40;;
74459;SDS011;62902;48.854;9.292;2023-02-15T02:13:24;948.22;;;665.20;;
74459;SDS011;62902;48.854;9.292;2023-02-15T02:16:00;948.80;;;662.43;;
74459;SDS011;62902;48.854;9.292;2023-02-15T02:18:33;951.25;;;666.22;;
74459;SDS011;62902;48.854;9.292;2023-02-15T02:21:36;948.90;;;668.10;;
74459;SDS011;62902;48.854;9.292;2023-02-15T02:24:44;946.80;;;665.57;;
74459;SDS011;62902;48.854;9.292;2023-02-15T02:30:37;940.67;;;661.33;;
74459;SDS011;62902;48.854;9.292;2023-02-15T02:38:52;936.25;;;666.80;;
74459;SDS011;62902;48.854;9.292;2023-02-15T02:44:19;937.40;;;664.25;;
74459;SDS011;62902;48.854;9.292;2023-02-15T02:46:53;930.97;;;662.07;;
74459;SDS011;62902;48.854;9.292;2023-02-15T02:49:34;933.20;;;664.10;;
74459;SDS011;62902;48.854;9.292;2023-02-15T02:52:03;935.80;;;667.30;;
74459;SDS011;62902;48.854;9.292;2023-02-15T02:54:33;928.45;;;662.95;;
74459;SDS011;62902;48.854;9.292;2023-02-15T02:57:02;924.05;;;665.85;;
74459;SDS011;62902;48.854;9.292;2023-02-15T03:02:10;919.20;;;662.90;;
74459;SDS011;62902;48.854;9.292;2023-02-15T03:04:41;911.17;;;648.70;;
74459;SDS011;62902;48.854;9.292;2023-02-15T03:07:12;918.40;;;649.80;;
74459;SDS011;62902;48.854;9.292;2023-02-15T03:09:49;911.10;;;646.83;;
74459;SDS011;62902;48.854;9.292;2023-02-15T03:12:19;910.30;;;649.97;;
74459;SDS011;62902;48.854;9.292;2023-02-15T03:14:54;908.95;;;653.60;;
74459;SDS011;62902;48.854;9.292;2023-02-15T03:18:14;908.88;;;655.15;;
74459;SDS011;62902;48.854;9.292;2023-02-15T03:20:49;903.90;;;650.43;;
74459;SDS011;62902;48.854;9.292;2023-02-15T03:25:46;905.55;;;654.55;;
74459;SDS011;62902;48.854;9.292;2023-02-15T03:30:51;904.80;;;652.20;;
74459;SDS011;62902;48.854;9.292;2023-02-15T03:33:19;900.80;;;650.05;;
74459;SDS011;62902;48.854;9.292;2023-02-15T03:38:43;903.50;;;655.50;;
74459;SDS011;62902;48.854;9.292;2023-02-15T03:41:14;902.00;;;648.85;;
74459;SDS011;62902;48.854;9.292;2023-02-15T03:43:55;902.40;;;652.80;;
74459;SDS011;62902;48.854;9.292;2023-02-15T03:49:02;901.92;;;650.05;;
74459;SDS011;62902;48.854;9.292;2023-02-15T03:51:32;901.73;;;654.40;;
74459;SDS011;62902;48.854;9.292;2023-02-15T03:57:00;898.40;;;654.00;;
74459;SDS011;62902;48.854;9.292;2023-02-15T03:59:46;903.67;;;652.92;;
74459;SDS011;62902;48.854;9.292;2023-02-15T04:02:45;899.97;;;652.23;;
74459;SDS011;62902;48.854;9.292;2023-02-15T04:05:17;897.00;;;648.25;;
74459;SDS011;62902;48.854;9.292;2023-02-15T04:07:43;894.17;;;651.03;;
74459;SDS011;62902;48.854;9.292;2023-02-15T04:10:10;887.53;;;645.72;;
74459;SDS011;62902;48.854;9.292;2023-02-15T04:12:55;886.10;;;649.35;;
74459;SDS011;62902;48.854;9.292;2023-02-15T04:15:22;883.55;;;648.35;;
74459;SDS011;62902;48.854;9.292;2023-02-15T04:18:07;879.85;;;648.78;;
74459;SDS011;62902;48.854;9.292;2023-02-15T04:20:34;877.95;;;652.45;;
74459;SDS011;62902;48.854;9.292;2023-02-15T04:23:19;875.00;;;650.80;;
74459;SDS011;62902;48.854;9.292;2023-02-15T04:33:27;873.40;;;654.80;;
74459;SDS011;62902;48.854;9.292;2023-02-15T04:38:20;875.40;;;658.20;;
74459;SDS011;62902;48.854;9.292;2023-02-15T04:40:51;871.40;;;650.10;;
74459;SDS011;62902;48.854;9.292;2023-02-15T04:48:16;874.40;;;657.20;;
74459;SDS011;62902;48.854;9.292;2023-02-15T04:50:46;871.90;;;653.80;;
74459;SDS011;62902;48.854;9.292;2023-02-15T04:55:42;874.70;;;654.80;;
74459;SDS011;62902;48.854;9.292;2023-02-15T04:58:09;876.40;;;658.10;;
74459;SDS011;62902;48.854;9.292;2023-02-15T05:00:35;880.40;;;661.30;;
74459;SDS011;62902;48.854;9.292;2023-02-15T05:03:02;877.20;;;659.70;;
74459;SDS011;62902;48.854;9.292;2023-02-15T05:05:29;882.85;;;651.20;;
74459;SDS011;62902;48.854;9.292;2023-02-15T05:07:55;885.90;;;656.50;;
74459;SDS011;62902;48.854;9.292;2023-02-15T05:10:22;887.60;;;657.90;;
74459;SDS011;62902;48.854;9.292;2023-02-15T05:12:49;890.50;;;659.60;;
74459;SDS011;62902;48.854;9.292;2023-02-15T05:15:16;892.45;;;664.15;;
74459;SDS011;62902;48.854;9.292;2023-02-15T05:17:43;896.60;;;666.45;;
74459;SDS011;62902;48.854;9.292;2023-02-15T05:20:09;898.40;;;663.60;;
74459;SDS011;62902;48.854;9.292;2023-02-15T05:25:02;888.35;;;663.45;;
74459;SDS011;62902;48.854;9.292;2023-02-15T05:30:33;884.30;;;666.65;;
74459;SDS011;62902;48.854;9.292;2023-02-15T05:33:00;886.55;;;672.70;;
74459;SDS011;62902;48.854;9.292;2023-02-15T05:40:19;881.90;;;669.05;;
74459;SDS011;62902;48.854;9.292;2023-02-15T05:42:46;879.60;;;666.20;;
74459;SDS011;62902;48.854;9.292;2023-02-15T05:47:39;876.70;;;658.40;;
74459;SDS011;62902;48.854;9.292;2023-02-15T05:52:32;879.40;;;656.30;;
74459;SDS011;62902;48.854;9.292;2023-02-15T05:54:58;881.30;;;660.80;;
74459;SDS011;62902;48.854;9.292;2023-02-15T05:57:26;882.70;;;654.00;;
74459;SDS011;62902;48.854;9.292;2023-02-15T05:59:53;882.10;;;654.30;;
74459;SDS011;62902;48.854;9.292;2023-02-15T06:02:19;880.15;;;654.15;;
74459;SDS011;62902;48.854;9.292;2023-02-15T06:04:46;877.67;;;649.72;;
74459;SDS011;62902;48.854;9.292;2023-02-15T06:07:13;885.00;;;655.37;;
74459;SDS011;62902;48.854;9.292;2023-02-15T06:09:39;880.55;;;654.35;;
74459;SDS011;62902;48.854;9.292;2023-02-15T06:12:06;876.60;;;654.20;;
74459;SDS011;62902;48.854;9.292;2023-02-15T06:14:32;877.30;;;653.25;;
74459;SDS011;62902;48.854;9.292;2023-02-15T06:16:59;878.10;;;654.30;;
74459;SDS011;62902;48.854;9.292;2023-02-15T06:19:25;879.00;;;655.50;;
74459;SDS011;62902;48.854;9.292;2023-02-15T06:21:52;878.15;;;654.35;;
74459;SDS011;62902;48.854;9.292;2023-02-15T06:24:18;881.30;;;655.70;;
74459;SDS011;62902;48.854;9.292;2023-02-15T06:26:45;881.40;;;651.80;;
74459;SDS011;62902;48.854;9.292;2023-02-15T06:29:11;871.90;;;642.40;;
74459;SDS011;62902;48.854;9.292;2023-02-15T06:31:38;883.85;;;654.10;;
74459;SDS011;62902;48.854;9.292;2023-02-15T06:34:05;882.55;;;653.55;;
74459;SDS011;62902;48.854;9.292;2023-02-15T06:36:34;887.70;;;657.15;;
74459;SDS011;62902;48.854;9.292;2023-02-15T06:39:01;884.90;;;654.50;;
74459;SDS011;62902;48.854;9.292;2023-02-15T06:41:29;889.30;;;660.90;;
74459;SDS011;62902;48.854;9.292;2023-02-15T06:43:58;889.60;;;657.60;;
74459;SDS011;62902;48.854;9.292;2023-02-15T06:46:25;888.90;;;659.20;;
74459;SDS011;62902;48.854;9.292;2023-02-15T06:48:52;889.15;;;659.75;;
74459;SDS011;62902;48.854;9.292;2023-02-15T06:51:18;883.30;;;656.00;;
74459;SDS011;62902;48.854;9.292;2023-02-15T06:53:45;883.70;;;659.70;;
74459;SDS011;62902;48.854;9.292;2023-02-15T06:58:39;889.00;;;660.40;;
74459;SDS011;62902;48.854;9.292;2023-02-15T07:01:06;885.10;;;660.10;;
74459;SDS011;62902;48.854;9.292;2023-02-15T07:03:34;885.00;;;656.30;;
74459;SDS011;62902;48.854;9.292;2023-02-15T07:06:02;887.30;;;660.50;;
74459;SDS011;62902;48.854;9.292;2023-02-15T07:08:32;887.10;;;663.80;;
74459;SDS011;62902;48.854;9.292;2023-02-15T07:10:59;891.50;;;666.50;;
74459;SDS011;62902;48.854;9.292;2023-02-15T07:13:46;892.20;;;666.80;;
74459;SDS011;62902;48.854;9.292;2023-02-15T07:16:13;891.40;;;667.00;;
74459;SDS011;62902;48.854;9.292;2023-02-15T07:18:39;891.65;;;667.95;;
74459;SDS011;62902;48.854;9.292;2023-02-15T07:21:06;889.73;;;669.33;;
74459;SDS011;62902;48.854;9.292;2023-02-15T07:26:04;878.10;;;668.20;;
74459;SDS011;62902;48.854;9.292;2023-02-15T07:28:31;873.70;;;665.20;;
74459;SDS011;62902;48.854;9.292;2023-02-15T07:31:00;876.85;;;667.10;;
74459;SDS011;62902;48.854;9.292;2023-02-15T07:33:29;871.50;;;663.25;;
74459;SDS011;62902;48.854;9.292;2023-02-15T07:35:57;872.05;;;659.30;;
74459;SDS011;62902;48.854;9.292;2023-02-15T07:40:57;877.35;;;659.50;;
74459;SDS011;62902;48.854;9.292;2023-02-15T07:43:24;881.00;;;659.70;;
74459;SDS011;62902;48.854;9.292;2023-02-15T07:45:53;877.80;;;654.85;;
74459;SDS011;62902;48.854;9.292;2023-02-15T07:48:20;884.60;;;657.00;;
74459;SDS011;62902;48.854;9.292;2023-02-15T07:50:50;882.55;;;656.75;;
74459;SDS011;62902;48.854;9.292;2023-02-15T07:53:16;887.25;;;659.10;;
74459;SDS011;62902;48.854;9.292;2023-02-15T07:55:43;891.30;;;657.85;;
74459;SDS011;62902;48.854;9.292;2023-02-15T07:58:09;889.05;;;658.95;;
74459;SDS011;62902;48.854;9.292;2023-02-15T08:03:23;897.78;;;660.58;;
74459;SDS011;62902;48.854;9.292;2023-02-15T08:05:56;901.73;;;657.80;;
74459;SDS011;62902;48.854;9.292;2023-02-15T08:08:25;910.80;;;662.95;;
74459;SDS011;62902;48.854;9.292;2023-02-15T08:13:47;907.90;;;653.45;;
74459;SDS011;62902;48.854;9.292;2023-02-15T08:19:15;929.80;;;663.33;;
74459;SDS011;62902;48.854;9.292;2023-02-15T08:21:44;924.65;;;663.60;;
74459;SDS011;62902;48.854;9.292;2023-02-15T08:24:14;923.80;;;661.47;;
74459;SDS011;62902;48.854;9.292;2023-02-15T08:26:41;925.23;;;661.77;;
74459;SDS011;62902;48.854;9.292;2023-02-15T08:29:09;925.60;;;667.35;;
74459;SDS011;62902;48.854;9.292;2023-02-15T08:31:35;927.40;;;667.20;;
74459;SDS011;62902;48.854;9.292;2023-02-15T08:34:04;923.60;;;667.00;;
74459;SDS011;62902;48.854;9.292;2023-02-15T08:36:31;934.75;;;666.35;;
74459;SDS011;62902;48.854;9.292;2023-02-15T08:38:58;933.25;;;665.15;;
74459;SDS011;62902;48.854;9.292;2023-02-15T08:41:27;940.33;;;668.10;;
74459;SDS011;62902;48.854;9.292;2023-02-15T08:43:58;941.42;;;667.13;;
74459;SDS011;62902;48.854;9.292;2023-02-15T08:46:27;951.80;;;671.80;;
74459;SDS011;62902;48.854;9.292;2023-02-15T08:48:55;943.97;;;667.28;;
74459;SDS011;62902;48.854;9.292;2023-02-15T08:51:24;947.33;;;666.92;;
74459;SDS011;62902;48.854;9.292;2023-02-15T08:53:53;937.30;;;667.50;;
74459;SDS011;62902;48.854;9.292;2023-02-15T08:56:22;934.70;;;668.67;;
74459;SDS011;62902;48.854;9.292;2023-02-15T08:58:50;934.20;;;666.42;;
74459;SDS011;62902;48.854;9.292;2023-02-15T09:01:18;933.28;;;663.20;;
74459;SDS011;62902;48.854;9.292;2023-02-15T09:03:50;938.20;;;664.15;;
74459;SDS011;62902;48.854;9.292;2023-02-15T09:06:19;945.30;;;668.60;;
74459;SDS011;62902;48.854;9.292;2023-02-15T09:08:46;951.00;;;673.83;;
74459;SDS011;62902;48.854;9.292;2023-02-15T09:11:14;948.88;;;668.25;;
74459;SDS011;62902;48.854;9.292;2023-02-15T09:13:55;944.00;;;668.40;;
74459;SDS011;62902;48.854;9.292;2023-02-15T09:16:28;952.10;;;676.42;;
74459;SDS011;62902;48.854;9.292;2023-02-15T09:18:55;946.50;;;671.50;;
74459;SDS011;62902;48.854;9.292;2023-02-15T09:23:56;955.50;;;669.27;;
74459;SDS011;62902;48.854;9.292;2023-02-15T09:26:29;960.47;;;669.85;;
74459;SDS011;62902;48.854;9.292;2023-02-15T09:28:57;957.00;;;673.60;;
74459;SDS011;62902;48.854;9.292;2023-02-15T09:31:28;951.10;;;675.50;;
74459;SDS011;62902;48.854;9.292;2023-02-15T09:33:59;943.00;;;666.67;;
74459;SDS011;62902;48.854;9.292;2023-02-15T09:36:30;942.00;;;668.55;;
74459;SDS011;62902;48.854;9.292;2023-02-15T09:39:00;947.20;;;665.60;;
74459;SDS011;62902;48.854;9.292;2023-02-15T09:41:50;957.70;;;671.35;;
74459;SDS011;62902;48.854;9.292;2023-02-15T09:56:38;1032.20;;;691.70;;
74459;SDS011;62902;48.854;9.292;2023-02-15T09:59:03;1044.60;;;696.70;;
74459;SDS011;62902;48.854;9.292;2023-02-15T10:04:29;1058.60;;;678.95;;
74459;SDS011;62902;48.854;9.292;2023-02-15T10:07:19;1104.30;;;688.90;;
74459;SDS011;62902;48.854;9.292;2023-02-15T10:13:16;1138.00;;;693.60;;
74459;SDS011;62902;48.854;9.292;2023-02-15T10:26:43;1145.07;;;693.60;;
74459;SDS011;62902;48.854;9.292;2023-02-15T10:29:16;1145.15;;;692.65;;
74459;SDS011;62902;48.854;9.292;2023-02-15T10:34:32;1146.85;;;697.00;;
74459;SDS011;62902;48.854;9.292;2023-02-15T10:40:08;1119.10;;;695.30;;
74459;SDS011;62902;48.854;9.292;2023-02-15T10:42:45;1114.25;;;691.75;;
74459;SDS011;62902;48.854;9.292;2023-02-15T10:45:28;1105.40;;;694.07;;
74459;SDS011;62902;48.854;9.292;2023-02-15T10:51:09;1107.77;;;693.17;;
74459;SDS011;62902;48.854;9.292;2023-02-15T10:53:43;1111.40;;;691.80;;
74459;SDS011;62902;48.854;9.292;2023-02-15T10:56:36;1117.38;;;692.78;;
74459;SDS011;62902;48.854;9.292;2023-02-15T10:59:20;1122.50;;;696.45;;
74459;SDS011;62902;48.854;9.292;2023-02-15T11:15:19;1181.97;;;696.65;;
74459;SDS011;62902;48.854;9.292;2023-02-15T11:17:55;1198.47;;;696.10;;
74459;SDS011;62902;48.854;9.292;2023-02-15T11:23:17;1217.40;;;697.42;;
74459;SDS011;62902;48.854;9.292;2023-02-15T11:25:45;1219.43;;;702.07;;
74459;SDS011;62902;48.854;9.292;2023-02-15T11:28:18;1208.93;;;698.95;;
74459;SDS011;62902;48.854;9.292;2023-02-15T11:30:50;1209.20;;;704.60;;
74459;SDS011;62902;48.854;9.292;2023-02-15T11:38:20;1179.15;;;706.65;;
74459;SDS011;62902;48.854;9.292;2023-02-15T11:40:49;1162.30;;;704.50;;
74459;SDS011;62902;48.854;9.292;2023-02-15T11:45:51;1152.25;;;699.45;;
74459;SDS011;62902;48.854;9.292;2023-02-15T11:48:17;1130.60;;;691.70;;
74459;SDS011;62902;48.854;9.292;2023-02-15T11:55:39;1124.80;;;697.60;;
74459;SDS011;62902;48.854;9.292;2023-02-15T12:00:43;1117.90;;;701.90;;
74459;SDS011;62902;48.854;9.292;2023-02-15T12:13:31;1091.50;;;696.80;;
74459;SDS011;62902;48.854;9.292;2023-02-15T12:15:58;1098.20;;;700.80;;
74459;SDS011;62902;48.854;9.292;2023-02-15T12:28:33;1106.80;;;706.00;;
74459;SDS011;62902;48.854;9.292;2023-02-15T12:31:23;1108.25;;;706.00;;
74459;SDS011;62902;48.854;9.292;2023-02-15T12:33:53;1104.50;;;705.70;;
74459;SDS011;62902;48.854;9.292;2023-02-15T12:46:41;1109.60;;;709.10;;
74459;SDS011;62902;48.854;9.292;2023-02-15T12:56:48;1104.80;;;703.90;;
74459;SDS011;62902;48.854;9.292;2023-02-15T13:01:49;1122.40;;;711.20;;
74459;SDS011;62902;48.854;9.292;2023-02-15T13:04:24;1120.00;;;709.10;;
74459;SDS011;62902;48.854;9.292;2023-02-15T13:06:52;1125.80;;;709.60;;
74459;SDS011;62902;48.854;9.292;2023-02-15T13:22:03;1154.80;;;707.00;;
74459;SDS011;62902;48.854;9.292;2023-02-15T13:35:00;1184.20;;;710.40;;
74459;SDS011;62902;48.854;9.292;2023-02-15T13:51:38;1206.20;;;718.00;;
74459;SDS011;62902;48.854;9.292;2023-02-15T14:07:24;1223.30;;;721.00;;
74459;SDS011;62902;48.854;9.292;2023-02-15T14:09:57;1223.30;;;716.90;;
74459;SDS011;62902;48.854;9.292;2023-02-15T14:20:08;1224.60;;;713.70;;
74459;SDS011;62902;48.854;9.292;2023-02-15T14:22:43;1232.50;;;718.00;;
74459;SDS011;62902;48.854;9.292;2023-02-15T14:51:00;1256.00;;;725.50;;
74459;SDS011;62902;48.854;9.292;2023-02-15T14:53:38;1251.70;;;721.70;;
74459;SDS011;62902;48.854;9.292;2023-02-15T15:06:19;1251.50;;;710.70;;
74459;SDS011;62902;48.854;9.292;2023-02-15T15:08:58;1271.60;;;734.60;;
74459;SDS011;62902;48.854;9.292;2023-02-15T15:19:02;1263.35;;;754.47;;
74459;SDS011;62902;48.854;9.292;2023-02-15T15:46:41;1227.50;;;743.20;;
74459;SDS011;62902;48.854;9.292;2023-02-15T15:51:47;1225.50;;;745.90;;
74459;SDS011;62902;48.854;9.292;2023-02-15T15:56:48;1220.70;;;735.00;;
74459;SDS011;62902;48.854;9.292;2023-02-15T15:59:19;1218.60;;;739.05;;
74459;SDS011;62902;48.854;9.292;2023-02-15T16:01:48;1216.80;;;742.30;;
74459;SDS011;62902;48.854;9.292;2023-02-15T16:04:23;1213.00;;;737.80;;
74459;SDS011;62902;48.854;9.292;2023-02-15T16:06:51;1209.80;;;742.40;;
74459;SDS011;62902;48.854;9.292;2023-02-15T16:09:22;1207.40;;;740.70;;
74459;SDS011;62902;48.854;9.292;2023-02-15T16:11:54;1201.20;;;739.20;;
74459;SDS011;62902;48.854;9.292;2023-02-15T16:14:38;1198.50;;;740.10;;
74459;SDS011;62902;48.854;9.292;2023-02-15T16:17:07;1182.15;;;687.33;;
74459;SDS011;62902;48.854;9.292;2023-02-15T16:19:40;1184.63;;;685.90;;
74459;SDS011;62902;48.854;9.292;2023-02-15T16:22:10;1174.55;;;683.30;;
74459;SDS011;62902;48.854;9.292;2023-02-15T16:28:04;1173.33;;;677.13;;
74459;SDS011;62902;48.854;9.292;2023-02-15T16:35:39;1160.95;;;678.65;;
74459;SDS011;62902;48.854;9.292;2023-02-15T16:38:10;1154.07;;;675.33;;
74459;SDS011;62902;48.854;9.292;2023-02-15T16:43:29;1147.10;;;678.30;;
74459;SDS011;62902;48.854;9.292;2023-02-15T16:46:04;1148.00;;;683.23;;
74459;SDS011;62902;48.854;9.292;2023-02-15T16:48:34;1141.07;;;688.83;;
74459;SDS011;62902;48.854;9.292;2023-02-15T16:51:06;1134.97;;;685.93;;
74459;SDS011;62902;48.854;9.292;2023-02-15T16:53:33;1136.60;;;692.85;;
74459;SDS011;62902;48.854;9.292;2023-02-15T16:56:00;1130.03;;;686.88;;
74459;SDS011;62902;48.854;9.292;2023-02-15T17:01:11;1128.20;;;697.60;;
74459;SDS011;62902;48.854;9.292;2023-02-15T17:03:40;1120.32;;;694.50;;
74459;SDS011;62902;48.854;9.292;2023-02-15T17:06:22;1117.85;;;691.78;;
74459;SDS011;62902;48.854;9.292;2023-02-15T17:09:05;1112.97;;;692.47;;
74459;SDS011;62902;48.854;9.292;2023-02-15T17:11:33;1115.05;;;695.58;;
74459;SDS011;62902;48.854;9.292;2023-02-15T17:16:32;1107.60;;;689.03;;
74459;SDS011;62902;48.854;9.292;2023-02-15T17:19:02;1106.88;;;688.45;;
74459;SDS011;62902;48.854;9.292;2023-02-15T17:21:37;1100.13;;;689.50;;
74459;SDS011;62902;48.854;9.292;2023-02-15T17:24:13;1104.65;;;693.72;;
74459;SDS011;62902;48.854;9.292;2023-02-15T17:26:42;1103.88;;;688.80;;
74459;SDS011;62902;48.854;9.292;2023-02-15T17:32:00;1099.90;;;690.85;;
74459;SDS011;62902;48.854;9.292;2023-02-15T17:37:12;1090.88;;;686.13;;
74459;SDS011;62902;48.854;9.292;2023-02-15T17:39:42;1093.55;;;688.38;;
74459;SDS011;62902;48.854;9.292;2023-02-15T17:42:09;1087.75;;;685.03;;
74459;SDS011;62902;48.854;9.292;2023-02-15T17:44:37;1084.25;;;685.00;;
74459;SDS011;62902;48.854;9.292;2023-02-15T17:47:04;1088.93;;;690.90;;
74459;SDS011;62902;48.854;9.292;2023-02-15T17:49:36;1085.25;;;688.47;;
74459;SDS011;62902;48.854;9.292;2023-02-15T17:52:03;1085.47;;;689.63;;
74459;SDS011;62902;48.854;9.292;2023-02-15T17:54:30;1081.30;;;687.20;;
74459;SDS011;62902;48.854;9.292;2023-02-15T17:57:15;1079.70;;;689.13;;
74459;SDS011;62902;48.854;9.292;2023-02-15T17:59:42;1079.53;;;694.72;;
74459;SDS011;62902;48.854;9.292;2023-02-15T18:02:37;1074.43;;;682.30;;
74459;SDS011;62902;48.854;9.292;2023-02-15T18:05:23;1074.60;;;686.15;;
74459;SDS011;62902;48.854;9.292;2023-02-15T18:08:12;1076.10;;;686.90;;
74459;SDS011;62902;48.854;9.292;2023-02-15T18:10:59;1077.30;;;690.70;;
74459;SDS011;62902;48.854;9.292;2023-02-15T18:13:45;1072.90;;;687.78;;
74459;SDS011;62902;48.854;9.292;2023-02-15T18:16:16;1071.53;;;684.47;;
74459;SDS011;62902;48.854;9.292;2023-02-15T18:18:45;1067.32;;;680.63;;
74459;SDS011;62902;48.854;9.292;2023-02-15T18:21:11;1070.57;;;679.93;;
74459;SDS011;62902;48.854;9.292;2023-02-15T18:23:38;1071.32;;;681.55;;
74459;SDS011;62902;48.854;9.292;2023-02-15T18:26:05;1067.30;;;681.00;;
74459;SDS011;62902;48.854;9.292;2023-02-15T18:28:32;1066.13;;;682.07;;
74459;SDS011;62902;48.854;9.292;2023-02-15T18:30:59;1067.90;;;685.50;;
74459;SDS011;62902;48.854;9.292;2023-02-15T18:33:36;1064.95;;;683.58;;
74459;SDS011;62902;48.854;9.292;2023-02-15T18:36:05;1066.78;;;686.08;;
74459;SDS011;62902;48.854;9.292;2023-02-15T18:38:33;1062.20;;;684.17;;
74459;SDS011;62902;48.854;9.292;2023-02-15T18:41:00;1057.68;;;678.40;;
74459;SDS011;62902;48.854;9.292;2023-02-15T18:43:28;1065.30;;;684.28;;
74459;SDS011;62902;48.854;9.292;2023-02-15T18:45:54;1060.28;;;683.42;;
74459;SDS011;62902;48.854;9.292;2023-02-15T18:48:21;1059.17;;;681.23;;
74459;SDS011;62902;48.854;9.292;2023-02-15T18:50:47;1061.07;;;682.40;;
74459;SDS011;62902;48.854;9.292;2023-02-15T18:53:18;1055.47;;;682.30;;
74459;SDS011;62902;48.854;9.292;2023-02-15T18:55:46;1052.75;;;676.00;;
74459;SDS011;62902;48.854;9.292;2023-02-15T18:58:19;1054.57;;;679.38;;
74459;SDS011;62902;48.854;9.292;2023-02-15T19:00:47;1059.30;;;681.15;;
74459;SDS011;62902;48.854;9.292;2023-02-15T19:03:15;1052.07;;;678.95;;
74459;SDS011;62902;48.854;9.292;2023-02-15T19:05:43;1050.45;;;676.83;;
74459;SDS011;62902;48.854;9.292;2023-02-15T19:08:18;1050.93;;;679.08;;
74459;SDS011;62902;48.854;9.292;2023-02-15T19:10:47;1051.40;;;674.80;;
74459;SDS011;62902;48.854;9.292;2023-02-15T19:13:14;1055.10;;;682.17;;
74459;SDS011;62902;48.854;9.292;2023-02-15T19:15:43;1049.95;;;682.95;;
74459;SDS011;62902;48.854;9.292;2023-02-15T19:18:09;1048.65;;;682.13;;
74459;SDS011;62902;48.854;9.292;2023-02-15T19:20:40;1048.37;;;681.43;;
74459;SDS011;62902;48.854;9.292;2023-02-15T19:23:13;1045.97;;;680.88;;
74459;SDS011;62902;48.854;9.292;2023-02-15T19:25:42;1037.77;;;668.70;;
74459;SDS011;62902;48.854;9.292;2023-02-15T19:28:16;1042.07;;;674.45;;
74459;SDS011;62902;48.854;9.292;2023-02-15T19:30:44;1039.15;;;675.58;;
74459;SDS011;62902;48.854;9.292;2023-02-15T19:33:15;1037.93;;;674.70;;
74459;SDS011;62902;48.854;9.292;2023-02-15T19:35:44;1035.38;;;677.22;;
74459;SDS011;62902;48.854;9.292;2023-02-15T19:38:15;1033.18;;;676.63;;
74459;SDS011;62902;48.854;9.292;2023-02-15T19:40:43;1031.03;;;670.35;;
74459;SDS011;62902;48.854;9.292;2023-02-15T19:43:18;1031.13;;;674.28;;
74459;SDS011;62902;48.854;9.292;2023-02-15T19:45:51;1033.13;;;673.17;;
74459;SDS011;62902;48.854;9.292;2023-02-15T19:48:18;1027.13;;;674.67;;
74459;SDS011;62902;48.854;9.292;2023-02-15T19:50:45;1034.60;;;677.22;;
74459;SDS011;62902;48.854;9.292;2023-02-15T19:55:46;1014.22;;;672.63;;
74459;SDS011;62902;48.854;9.292;2023-02-15T19:58:13;1013.45;;;675.72;;
74459;SDS011;62902;48.854;9.292;2023-02-15T20:00:42;1010.95;;;676.00;;
74459;SDS011;62902;48.854;9.292;2023-02-15T20:03:08;1000.95;;;677.30;;